sensor_id;sensor_type;location;lat;lon;timestamp;pressure;altitude;pressure_sealevel;temperature;humidity
55077;BME280;40971;44.702;11.030;2023-06-10T00:02:27;101027.03;;;21.62;84.83
55077;BME280;40971;44.702;11.030;2023-06-10T00:12:30;101021.53;;;21.27;87.56
55077;BME280;40971;44.702;11.030;2023-06-10T00:22:33;101024.81;;;21.29;88.10
55077;BME280;40971;44.702;11.030;2023-06-10T00:32:35;101030.41;;;21.10;91.58
55077;BME280;40971;44.702;11.030;2023-06-10T00:42:38;101028.38;;;21.05;91.62
55077;BME280;40971;44.702;11.030;2023-06-10T00:52:42;101029.06;;;21.19;90.76
55077;BME280;40971;44.702;11.030;2023-06-10T01:02:47;101039.91;;;20.87;91.84
55077;BME280;40971;44.702;11.030;2023-06-10T01:22:54;101048.88;;;20.01;98.57
55077;BME280;40971;44.702;11.030;2023-06-10T01:32:59;101037.13;;;20.08;99.10
55077;BME280;40971;44.702;11.030;2023-06-10T01:43:02;101032.38;;;20.10;99.57
55077;BME280;40971;44.702;11.030;2023-06-10T01:53:05;101041.31;;;19.98;100.00
55077;BME280;40971;44.702;11.030;2023-06-10T02:03:09;101038.06;;;19.89;100.00
55077;BME280;40971;44.702;11.030;2023-06-10T02:13:10;101028.84;;;19.85;100.00
55077;BME280;40971;44.702;11.030;2023-06-10T02:23:12;101019.66;;;19.81;100.00
55077;BME280;40971;44.702;11.030;2023-06-10T02:33:14;101020.75;;;19.73;100.00
55077;BME280;40971;44.702;11.030;2023-06-10T02:43:19;101029.97;;;19.71;100.00
55077;BME280;40971;44.702;11.030;2023-06-10T02:53:21;101026.13;;;19.67;100.00
55077;BME280;40971;44.702;11.030;2023-06-10T03:03:23;101027.75;;;19.68;100.00
55077;BME280;40971;44.702;11.030;2023-06-10T03:13:25;101022.88;;;19.58;100.00
55077;BME280;40971;44.702;11.030;2023-06-10T03:23:27;101022.88;;;19.58;100.00
55077;BME280;40971;44.702;11.030;2023-06-10T03:33:29;101022.31;;;19.50;100.00
55077;BME280;40971;44.702;11.030;2023-06-10T03:43:32;101019.22;;;19.53;100.00
55077;BME280;40971;44.702;11.030;2023-06-10T03:53:33;101006.16;;;19.76;100.00
55077;BME280;40971;44.702;11.030;2023-06-10T04:03:36;101029.47;;;19.87;100.00
55077;BME280;40971;44.702;11.030;2023-06-10T04:13:39;101024.03;;;20.00;100.00
55077;BME280;40971;44.702;11.030;2023-06-10T04:23:41;101024.44;;;20.04;100.00
55077;BME280;40971;44.702;11.030;2023-06-10T04:33:43;101026.16;;;20.16;100.00
55077;BME280;40971;44.702;11.030;2023-06-10T04:43:45;101040.91;;;20.25;100.00
55077;BME280;40971;44.702;11.030;2023-06-10T04:53:47;101038.81;;;20.27;100.00
55077;BME280;40971;44.702;11.030;2023-06-10T05:03:49;101028.38;;;20.26;100.00
55077;BME280;40971;44.702;11.030;2023-06-10T05:13:52;101030.81;;;20.27;100.00
55077;BME280;40971;44.702;11.030;2023-06-10T05:23:54;101032.78;;;20.39;100.00
55077;BME280;40971;44.702;11.030;2023-06-10T05:33:57;101034.19;;;20.66;100.00
55077;BME280;40971;44.702;11.030;2023-06-10T05:44:00;101032.69;;;20.88;100.00
55077;BME280;40971;44.702;11.030;2023-06-10T05:54:01;101023.03;;;21.05;99.70
55077;BME280;40971;44.702;11.030;2023-06-10T06:04:03;101025.66;;;21.41;98.66
55077;BME280;40971;44.702;11.030;2023-06-10T06:14:06;101031.81;;;21.60;97.71
55077;BME280;40971;44.702;11.030;2023-06-10T06:24:10;101029.69;;;21.92;96.04
55077;BME280;40971;44.702;11.030;2023-06-10T06:34:11;101022.28;;;22.17;94.53
55077;BME280;40971;44.702;11.030;2023-06-10T06:44:12;101028.13;;;22.37;91.61
55077;BME280;40971;44.702;11.030;2023-06-10T06:54:15;101029.53;;;22.51;89.24
55077;BME280;40971;44.702;11.030;2023-06-10T07:04:17;101035.81;;;22.45;85.71
55077;BME280;40971;44.702;11.030;2023-06-10T07:14:20;101046.91;;;22.49;83.99
55077;BME280;40971;44.702;11.030;2023-06-10T07:24:22;101034.28;;;22.84;81.04
55077;BME280;40971;44.702;11.030;2023-06-10T07:34:27;101046.47;;;24.00;76.06
55077;BME280;40971;44.702;11.030;2023-06-10T07:44:28;101046.34;;;24.56;73.58
55077;BME280;40971;44.702;11.030;2023-06-10T07:54:30;101052.94;;;25.74;70.02
55077;BME280;40971;44.702;11.030;2023-06-10T08:04:32;101055.25;;;25.92;67.38
55077;BME280;40971;44.702;11.030;2023-06-10T08:14:37;101050.03;;;25.54;68.09
55077;BME280;40971;44.702;11.030;2023-06-10T08:24:40;101047.31;;;26.07;63.08
55077;BME280;40971;44.702;11.030;2023-06-10T08:34:43;101048.03;;;25.22;60.92
55077;BME280;40971;44.702;11.030;2023-06-10T08:44:49;101053.38;;;25.44;58.91
55077;BME280;40971;44.702;11.030;2023-06-10T08:55:03;101062.59;;;25.05;66.13
55077;BME280;40971;44.702;11.030;2023-06-10T09:05:07;101055.09;;;24.02;70.01
55077;BME280;40971;44.702;11.030;2023-06-10T09:15:10;101061.28;;;23.86;66.54
55077;BME280;40971;44.702;11.030;2023-06-10T09:25:13;101067.28;;;24.21;66.21
55077;BME280;40971;44.702;11.030;2023-06-10T09:35:16;101065.91;;;23.90;65.75
55077;BME280;40971;44.702;11.030;2023-06-10T09:45:18;101063.69;;;24.15;63.08
55077;BME280;40971;44.702;11.030;2023-06-10T09:55:20;101065.44;;;23.93;63.30
55077;BME280;40971;44.702;11.030;2023-06-10T10:05:22;101066.28;;;23.65;64.67
55077;BME280;40971;44.702;11.030;2023-06-10T10:15:29;101052.13;;;23.53;65.11
55077;BME280;40971;44.702;11.030;2023-06-10T10:25:40;101057.03;;;23.45;63.95
55077;BME280;40971;44.702;11.030;2023-06-10T10:35:43;101048.53;;;23.48;64.23
55077;BME280;40971;44.702;11.030;2023-06-10T10:46:02;101046.66;;;23.65;64.32
55077;BME280;40971;44.702;11.030;2023-06-10T10:56:16;101052.47;;;23.45;63.07
55077;BME280;40971;44.702;11.030;2023-06-10T11:06:20;101060.03;;;23.48;65.75
55077;BME280;40971;44.702;11.030;2023-06-10T11:16:26;101070.06;;;23.13;71.98
55077;BME280;40971;44.702;11.030;2023-06-10T11:36:36;101047.13;;;22.94;73.29
55077;BME280;40971;44.702;11.030;2023-06-10T11:46:38;101042.25;;;22.79;76.24
55077;BME280;40971;44.702;11.030;2023-06-10T11:56:41;101043.88;;;22.80;78.28
55077;BME280;40971;44.702;11.030;2023-06-10T12:06:46;101044.25;;;23.12;80.51
55077;BME280;40971;44.702;11.030;2023-06-10T12:16:49;101040.63;;;23.18;79.34
55077;BME280;40971;44.702;11.030;2023-06-10T12:26:53;101011.50;;;23.10;77.99
55077;BME280;40971;44.702;11.030;2023-06-10T12:36:58;101004.41;;;24.05;69.45
55077;BME280;40971;44.702;11.030;2023-06-10T12:47:10;100994.91;;;25.61;66.34
55077;BME280;40971;44.702;11.030;2023-06-10T12:57:14;100981.53;;;25.18;61.77
55077;BME280;40971;44.702;11.030;2023-06-10T13:07:17;100979.53;;;25.57;62.16
55077;BME280;40971;44.702;11.030;2023-06-10T13:17:18;100975.59;;;26.90;62.74
55077;BME280;40971;44.702;11.030;2023-06-10T13:27:20;100983.34;;;27.63;55.94
55077;BME280;40971;44.702;11.030;2023-06-10T13:37:21;100989.31;;;26.83;58.89
55077;BME280;40971;44.702;11.030;2023-06-10T13:47:24;100981.53;;;26.40;59.44
55077;BME280;40971;44.702;11.030;2023-06-10T13:57:27;100986.09;;;26.02;62.00
55077;BME280;40971;44.702;11.030;2023-06-10T14:07:28;100963.19;;;25.68;60.88
55077;BME280;40971;44.702;11.030;2023-06-10T14:17:29;100955.78;;;25.85;59.78
55077;BME280;40971;44.702;11.030;2023-06-10T14:27:31;100964.28;;;25.72;58.51
55077;BME280;40971;44.702;11.030;2023-06-10T14:37:32;100968.84;;;25.40;60.86
55077;BME280;40971;44.702;11.030;2023-06-10T14:47:34;100975.69;;;25.53;63.75
55077;BME280;40971;44.702;11.030;2023-06-10T14:57:35;100960.09;;;25.55;65.14
55077;BME280;40971;44.702;11.030;2023-06-10T15:07:38;100957.22;;;25.13;66.91
55077;BME280;40971;44.702;11.030;2023-06-10T15:17:39;100948.09;;;24.10;68.10
55077;BME280;40971;44.702;11.030;2023-06-10T15:27:42;100937.44;;;23.37;69.71
55077;BME280;40971;44.702;11.030;2023-06-10T15:37:44;100927.97;;;23.18;72.52
55077;BME280;40971;44.702;11.030;2023-06-10T15:47:46;100900.19;;;23.24;74.65
55077;BME280;40971;44.702;11.030;2023-06-10T15:57:49;100891.19;;;23.30;74.69
55077;BME280;40971;44.702;11.030;2023-06-10T16:07:50;100863.78;;;23.28;77.15
55077;BME280;40971;44.702;11.030;2023-06-10T16:17:53;100843.09;;;22.67;78.74
55077;BME280;40971;44.702;11.030;2023-06-10T16:27:57;100864.38;;;23.02;77.16
55077;BME280;40971;44.702;11.030;2023-06-10T16:37:59;100866.81;;;23.03;77.29
55077;BME280;40971;44.702;11.030;2023-06-10T16:48:04;100873.69;;;23.11;77.68
55077;BME280;40971;44.702;11.030;2023-06-10T16:58:07;100880.69;;;23.78;77.24
55077;BME280;40971;44.702;11.030;2023-06-10T17:08:10;100898.13;;;23.59;74.62
55077;BME280;40971;44.702;11.030;2023-06-10T17:18:14;100901.06;;;23.41;76.37
55077;BME280;40971;44.702;11.030;2023-06-10T17:28:15;100903.16;;;23.89;75.42
55077;BME280;40971;44.702;11.030;2023-06-10T17:38:18;100908.84;;;23.43;77.75
55077;BME280;40971;44.702;11.030;2023-06-10T17:48:22;100933.03;;;22.75;80.79
55077;BME280;40971;44.702;11.030;2023-06-10T17:58:23;100947.28;;;22.64;81.11
55077;BME280;40971;44.702;11.030;2023-06-10T18:08:24;100940.19;;;22.34;81.54
55077;BME280;40971;44.702;11.030;2023-06-10T18:18:27;100941.47;;;22.32;81.60
55077;BME280;40971;44.702;11.030;2023-06-10T18:28:29;100944.25;;;22.25;82.59
55077;BME280;40971;44.702;11.030;2023-06-10T18:38:31;100952.44;;;21.95;83.46
55077;BME280;40971;44.702;11.030;2023-06-10T18:48:32;100961.41;;;22.13;84.67
55077;BME280;40971;44.702;11.030;2023-06-10T18:58:34;100966.16;;;21.87;85.62
55077;BME280;40971;44.702;11.030;2023-06-10T19:08:37;100963.31;;;21.71;88.45
55077;BME280;40971;44.702;11.030;2023-06-10T19:18:38;100964.56;;;21.57;90.55
55077;BME280;40971;44.702;11.030;2023-06-10T19:28:40;100969.94;;;21.38;91.98
55077;BME280;40971;44.702;11.030;2023-06-10T19:38:41;100992.09;;;21.16;92.52
55077;BME280;40971;44.702;11.030;2023-06-10T19:48:44;100986.97;;;20.96;93.34
55077;BME280;40971;44.702;11.030;2023-06-10T19:58:48;101012.63;;;20.61;92.57
55077;BME280;40971;44.702;11.030;2023-06-10T20:08:50;101028.16;;;20.27;94.19
55077;BME280;40971;44.702;11.030;2023-06-10T20:18:51;101051.72;;;19.74;94.43
55077;BME280;40971;44.702;11.030;2023-06-10T20:28:53;101033.69;;;19.70;96.80
55077;BME280;40971;44.702;11.030;2023-06-10T20:38:55;101025.16;;;19.55;97.34
55077;BME280;40971;44.702;11.030;2023-06-10T20:48:57;101000.56;;;19.53;98.20
55077;BME280;40971;44.702;11.030;2023-06-10T20:59:00;100985.84;;;19.44;96.57
55077;BME280;40971;44.702;11.030;2023-06-10T21:09:01;101002.63;;;19.06;95.82
55077;BME280;40971;44.702;11.030;2023-06-10T21:19:02;101025.03;;;18.92;97.42
55077;BME280;40971;44.702;11.030;2023-06-10T21:29:05;101036.75;;;18.65;100.00
55077;BME280;40971;44.702;11.030;2023-06-10T21:39:07;101035.53;;;18.61;100.00
55077;BME280;40971;44.702;11.030;2023-06-10T21:49:09;101065.03;;;18.53;100.00
55077;BME280;40971;44.702;11.030;2023-06-10T21:59:11;101085.28;;;18.47;100.00
55077;BME280;40971;44.702;11.030;2023-06-10T22:09:13;101092.47;;;18.60;100.00
55077;BME280;40971;44.702;11.030;2023-06-10T22:19:15;101089.41;;;18.56;99.86
55077;BME280;40971;44.702;11.030;2023-06-10T22:29:16;101090.22;;;18.31;100.00
55077;BME280;40971;44.702;11.030;2023-06-10T22:39:19;101091.44;;;18.22;100.00
55077;BME280;40971;44.702;11.030;2023-06-10T22:49:21;101063.59;;;18.24;100.00
55077;BME280;40971;44.702;11.030;2023-06-10T22:59:23;101051.91;;;18.19;99.37
55077;BME280;40971;44.702;11.030;2023-06-10T23:09:25;101053.34;;;18.08;99.51
55077;BME280;40971;44.702;11.030;2023-06-10T23:19:27;101056.63;;;18.17;99.70
55077;BME280;40971;44.702;11.030;2023-06-10T23:29:31;101056.22;;;18.26;98.38
55077;BME280;40971;44.702;11.030;2023-06-10T23:39:36;101058.66;;;18.08;97.95
55077;BME280;40971;44.702;11.030;2023-06-10T23:49:40;101068.09;;;18.11;99.34
55077;BME280;40971;44.702;11.030;2023-06-10T23:59:41;101071.09;;;17.75;98.55
